sensor_id;sensor_type;location;lat;lon;timestamp;pressure;altitude;pressure_sealevel;temperature;humidity
62055;BME280;48653;51.742;-1.256;2023-02-02T00:03:47;101977.69;;;7.86;51.02
62055;BME280;48653;51.742;-1.256;2023-02-02T00:06:12;101983.04;;;9.03;49.13
62055;BME280;48653;51.742;-1.256;2023-02-02T00:08:37;101983.79;;;8.75;49.84
62055;BME280;48653;51.742;-1.256;2023-02-02T00:11:03;101983.78;;;8.50;50.60
62055;BME280;48653;51.742;-1.256;2023-02-02T00:13:27;101986.80;;;7.87;51.68
62055;BME280;48653;51.742;-1.256;2023-02-02T00:15:53;101987.54;;;7.88;52.72
62055;BME280;48653;51.742;-1.256;2023-02-02T00:18:18;101984.88;;;8.39;51.71
62055;BME280;48653;51.742;-1.256;2023-02-02T00:20:44;101979.55;;;8.42;51.58
62055;BME280;48653;51.742;-1.256;2023-02-02T00:23:09;101976.92;;;8.15;52.19
62055;BME280;48653;51.742;-1.256;2023-02-02T00:25:34;101979.57;;;8.78;51.45
62055;BME280;48653;51.742;-1.256;2023-02-02T00:28:00;101979.11;;;8.58;51.90
62055;BME280;48653;51.742;-1.256;2023-02-02T00:30:26;101978.36;;;8.29;52.26
62055;BME280;48653;51.742;-1.256;2023-02-02T00:32:51;101981.28;;;8.63;51.63
62055;BME280;48653;51.742;-1.256;2023-02-02T00:35:17;101981.14;;;8.90;50.55
62055;BME280;48653;51.742;-1.256;2023-02-02T00:37:42;101981.27;;;8.91;50.21
62055;BME280;48653;51.742;-1.256;2023-02-02T00:40:08;101978.75;;;8.97;50.51
62055;BME280;48653;51.742;-1.256;2023-02-02T00:42:32;101972.76;;;8.65;50.70
62055;BME280;48653;51.742;-1.256;2023-02-02T00:44:58;101969.99;;;8.95;50.25
62055;BME280;48653;51.742;-1.256;2023-02-02T00:47:23;101973.39;;;8.61;50.68
62055;BME280;48653;51.742;-1.256;2023-02-02T00:49:48;101969.35;;;8.56;51.43
62055;BME280;48653;51.742;-1.256;2023-02-02T00:52:14;101964.68;;;8.21;51.99
62055;BME280;48653;51.742;-1.256;2023-02-02T00:54:39;101960.77;;;7.76;53.80
62055;BME280;48653;51.742;-1.256;2023-02-02T00:57:05;101962.37;;;7.44;54.80
62055;BME280;48653;51.742;-1.256;2023-02-02T00:59:30;101958.19;;;7.71;54.23
62055;BME280;48653;51.742;-1.256;2023-02-02T01:01:56;101952.81;;;7.70;54.21
62055;BME280;48653;51.742;-1.256;2023-02-02T01:04:21;101960.70;;;7.78;54.72
62055;BME280;48653;51.742;-1.256;2023-02-02T01:06:46;101960.01;;;7.70;54.35
62055;BME280;48653;51.742;-1.256;2023-02-02T01:09:12;101965.44;;;7.52;54.95
62055;BME280;48653;51.742;-1.256;2023-02-02T01:11:37;101973.27;;;7.61;54.93
62055;BME280;48653;51.742;-1.256;2023-02-02T01:14:02;101974.79;;;7.35;55.99
62055;BME280;48653;51.742;-1.256;2023-02-02T01:16:27;101974.23;;;7.65;55.05
62055;BME280;48653;51.742;-1.256;2023-02-02T01:18:52;101976.50;;;7.62;54.52
62055;BME280;48653;51.742;-1.256;2023-02-02T01:21:17;101978.79;;;8.01;54.36
62055;BME280;48653;51.742;-1.256;2023-02-02T01:23:43;101975.52;;;7.66;54.92
62055;BME280;48653;51.742;-1.256;2023-02-02T01:26:09;101977.58;;;7.84;54.78
62055;BME280;48653;51.742;-1.256;2023-02-02T01:28:33;101980.60;;;8.05;54.30
62055;BME280;48653;51.742;-1.256;2023-02-02T01:31:05;101978.34;;;7.17;55.86
62055;BME280;48653;51.742;-1.256;2023-02-02T01:33:24;101976.99;;;7.98;54.15
62055;BME280;48653;51.742;-1.256;2023-02-02T01:35:51;101973.97;;;8.05;53.63
62055;BME280;48653;51.742;-1.256;2023-02-02T01:38:15;101971.89;;;8.02;53.17
62055;BME280;48653;51.742;-1.256;2023-02-02T01:40:47;101971.08;;;8.11;52.72
62055;BME280;48653;51.742;-1.256;2023-02-02T01:43:18;101962.68;;;7.94;53.20
62055;BME280;48653;51.742;-1.256;2023-02-02T01:45:30;101966.27;;;7.75;53.50
62055;BME280;48653;51.742;-1.256;2023-02-02T01:47:58;101973.02;;;8.29;52.74
62055;BME280;48653;51.742;-1.256;2023-02-02T01:50:24;101973.67;;;7.28;54.74
62055;BME280;48653;51.742;-1.256;2023-02-02T01:52:48;101982.18;;;7.63;53.74
62055;BME280;48653;51.742;-1.256;2023-02-02T01:55:14;101982.68;;;7.40;54.33
62055;BME280;48653;51.742;-1.256;2023-02-02T01:57:39;101986.88;;;7.92;52.95
62055;BME280;48653;51.742;-1.256;2023-02-02T02:00:07;101991.85;;;8.11;52.51
62055;BME280;48653;51.742;-1.256;2023-02-02T02:02:29;101991.53;;;7.68;52.94
62055;BME280;48653;51.742;-1.256;2023-02-02T02:04:54;101998.48;;;8.54;50.92
62055;BME280;48653;51.742;-1.256;2023-02-02T02:07:19;101999.67;;;8.62;50.28
62055;BME280;48653;51.742;-1.256;2023-02-02T02:09:44;102004.79;;;8.19;50.46
62055;BME280;48653;51.742;-1.256;2023-02-02T02:12:10;102007.30;;;8.29;50.84
62055;BME280;48653;51.742;-1.256;2023-02-02T02:14:34;102002.57;;;8.02;50.77
62055;BME280;48653;51.742;-1.256;2023-02-02T02:21:56;102011.83;;;8.35;50.63
62055;BME280;48653;51.742;-1.256;2023-02-02T02:24:43;102006.56;;;7.92;51.37
62055;BME280;48653;51.742;-1.256;2023-02-02T02:26:55;102002.07;;;8.22;50.99
62055;BME280;48653;51.742;-1.256;2023-02-02T02:29:25;102001.25;;;7.82;52.38
62055;BME280;48653;51.742;-1.256;2023-02-02T02:31:50;101995.44;;;7.67;52.63
62055;BME280;48653;51.742;-1.256;2023-02-02T02:33:59;101994.95;;;8.00;52.19
62055;BME280;48653;51.742;-1.256;2023-02-02T02:36:26;101998.41;;;7.97;52.14
62055;BME280;48653;51.742;-1.256;2023-02-02T02:38:54;102001.97;;;7.22;53.17
62055;BME280;48653;51.742;-1.256;2023-02-02T02:41:18;101993.26;;;7.52;53.14
62055;BME280;48653;51.742;-1.256;2023-02-02T02:43:42;101986.99;;;7.42;53.78
62055;BME280;48653;51.742;-1.256;2023-02-02T02:46:05;101986.94;;;8.17;52.32
62055;BME280;48653;51.742;-1.256;2023-02-02T02:48:30;101981.40;;;7.41;54.14
62055;BME280;48653;51.742;-1.256;2023-02-02T02:51:06;101984.07;;;7.42;54.32
62055;BME280;48653;51.742;-1.256;2023-02-02T02:53:21;101986.39;;;7.39;54.44
62055;BME280;48653;51.742;-1.256;2023-02-02T02:55:51;101989.64;;;7.58;53.62
62055;BME280;48653;51.742;-1.256;2023-02-02T02:58:17;101987.63;;;7.57;54.08
62055;BME280;48653;51.742;-1.256;2023-02-02T03:00:50;101978.40;;;8.01;53.39
62055;BME280;48653;51.742;-1.256;2023-02-02T03:03:07;101980.57;;;8.01;53.96
62055;BME280;48653;51.742;-1.256;2023-02-02T03:05:35;101989.54;;;7.41;55.97
62055;BME280;48653;51.742;-1.256;2023-02-02T03:08:00;101989.93;;;7.07;56.98
62055;BME280;48653;51.742;-1.256;2023-02-02T03:10:23;101993.42;;;6.93;57.68
62055;BME280;48653;51.742;-1.256;2023-02-02T03:12:46;101993.76;;;7.51;57.00
62055;BME280;48653;51.742;-1.256;2023-02-02T03:15:12;101996.45;;;7.74;56.55
62055;BME280;48653;51.742;-1.256;2023-02-02T03:17:36;101995.06;;;7.10;56.88
62055;BME280;48653;51.742;-1.256;2023-02-02T03:20:02;101997.85;;;6.95;56.39
62055;BME280;48653;51.742;-1.256;2023-02-02T03:22:27;101996.41;;;8.00;54.97
62055;BME280;48653;51.742;-1.256;2023-02-02T03:24:52;101993.36;;;7.98;54.59
62055;BME280;48653;51.742;-1.256;2023-02-02T03:27:18;101987.99;;;7.81;54.34
62055;BME280;48653;51.742;-1.256;2023-02-02T03:29:43;101981.01;;;8.03;54.03
62055;BME280;48653;51.742;-1.256;2023-02-02T03:32:09;101982.80;;;7.95;54.14
62055;BME280;48653;51.742;-1.256;2023-02-02T03:34:34;101979.01;;;8.69;53.07
62055;BME280;48653;51.742;-1.256;2023-02-02T03:37:00;101979.87;;;8.10;53.42
62055;BME280;48653;51.742;-1.256;2023-02-02T03:39:26;101977.55;;;8.37;52.99
62055;BME280;48653;51.742;-1.256;2023-02-02T03:41:51;101978.20;;;8.39;52.90
62055;BME280;48653;51.742;-1.256;2023-02-02T03:44:17;101977.78;;;8.18;53.03
62055;BME280;48653;51.742;-1.256;2023-02-02T03:46:42;101977.03;;;8.09;53.13
62055;BME280;48653;51.742;-1.256;2023-02-02T03:49:07;101976.08;;;7.72;53.81
62055;BME280;48653;51.742;-1.256;2023-02-02T03:51:33;101978.03;;;8.78;52.18
62055;BME280;48653;51.742;-1.256;2023-02-02T03:53:59;101976.78;;;8.27;52.75
62055;BME280;48653;51.742;-1.256;2023-02-02T03:56:23;101980.25;;;8.33;51.90
62055;BME280;48653;51.742;-1.256;2023-02-02T03:58:49;101981.35;;;8.87;50.91
62055;BME280;48653;51.742;-1.256;2023-02-02T04:01:15;101976.18;;;8.83;50.58
62055;BME280;48653;51.742;-1.256;2023-02-02T04:03:40;101981.81;;;8.85;50.49
62055;BME280;48653;51.742;-1.256;2023-02-02T04:06:05;101977.93;;;8.62;50.23
62055;BME280;48653;51.742;-1.256;2023-02-02T04:08:30;101978.67;;;8.60;50.26
62055;BME280;48653;51.742;-1.256;2023-02-02T04:10:55;101976.07;;;8.33;50.20
62055;BME280;48653;51.742;-1.256;2023-02-02T04:13:20;101978.39;;;9.10;49.04
62055;BME280;48653;51.742;-1.256;2023-02-02T04:15:45;101981.12;;;8.83;49.07
62055;BME280;48653;51.742;-1.256;2023-02-02T04:18:11;101973.69;;;8.77;49.24
62055;BME280;48653;51.742;-1.256;2023-02-02T04:20:36;101965.61;;;8.59;49.37
62055;BME280;48653;51.742;-1.256;2023-02-02T04:23:01;101958.93;;;7.08;51.64
62055;BME280;48653;51.742;-1.256;2023-02-02T04:25:27;101953.02;;;8.33;50.24
62055;BME280;48653;51.742;-1.256;2023-02-02T04:27:52;101953.58;;;8.32;49.85
62055;BME280;48653;51.742;-1.256;2023-02-02T04:30:17;101949.14;;;7.90;50.65
62055;BME280;48653;51.742;-1.256;2023-02-02T04:32:42;101943.20;;;7.70;50.35
62055;BME280;48653;51.742;-1.256;2023-02-02T04:35:08;101945.02;;;7.92;49.75
62055;BME280;48653;51.742;-1.256;2023-02-02T04:37:32;101945.70;;;7.69;50.40
62055;BME280;48653;51.742;-1.256;2023-02-02T04:39:58;101946.73;;;7.96;49.81
62055;BME280;48653;51.742;-1.256;2023-02-02T04:42:23;101951.75;;;7.32;50.71
62055;BME280;48653;51.742;-1.256;2023-02-02T04:44:48;101959.76;;;7.36;50.68
62055;BME280;48653;51.742;-1.256;2023-02-02T04:47:13;101964.81;;;7.85;49.57
62055;BME280;48653;51.742;-1.256;2023-02-02T04:49:38;101969.56;;;7.63;50.25
62055;BME280;48653;51.742;-1.256;2023-02-02T04:52:04;101966.14;;;6.75;52.50
62055;BME280;48653;51.742;-1.256;2023-02-02T04:54:29;101964.75;;;6.68;52.79
62055;BME280;48653;51.742;-1.256;2023-02-02T04:56:54;101960.97;;;7.02;52.18
62055;BME280;48653;51.742;-1.256;2023-02-02T04:59:19;101958.56;;;7.25;51.20
62055;BME280;48653;51.742;-1.256;2023-02-02T05:01:44;101954.16;;;7.12;52.12
62055;BME280;48653;51.742;-1.256;2023-02-02T05:04:10;101952.08;;;6.69;52.96
62055;BME280;48653;51.742;-1.256;2023-02-02T05:06:34;101959.70;;;6.13;54.61
62055;BME280;48653;51.742;-1.256;2023-02-02T05:08:59;101959.20;;;6.51;54.29
62055;BME280;48653;51.742;-1.256;2023-02-02T05:11:25;101963.03;;;6.33;55.58
62055;BME280;48653;51.742;-1.256;2023-02-02T05:13:51;101968.74;;;6.51;54.83
62055;BME280;48653;51.742;-1.256;2023-02-02T05:16:15;101968.82;;;6.33;55.65
62055;BME280;48653;51.742;-1.256;2023-02-02T05:18:40;101967.18;;;6.36;55.72
62055;BME280;48653;51.742;-1.256;2023-02-02T05:21:05;101963.52;;;6.72;54.75
62055;BME280;48653;51.742;-1.256;2023-02-02T05:23:31;101967.46;;;6.53;55.74
62055;BME280;48653;51.742;-1.256;2023-02-02T05:25:56;101970.25;;;6.28;56.08
62055;BME280;48653;51.742;-1.256;2023-02-02T05:28:21;101976.17;;;6.81;55.21
62055;BME280;48653;51.742;-1.256;2023-02-02T05:30:46;101983.17;;;6.96;54.94
62055;BME280;48653;51.742;-1.256;2023-02-02T05:33:12;101984.12;;;6.81;55.31
62055;BME280;48653;51.742;-1.256;2023-02-02T05:35:36;101982.41;;;6.80;55.73
62055;BME280;48653;51.742;-1.256;2023-02-02T05:38:02;101979.34;;;7.39;54.74
62055;BME280;48653;51.742;-1.256;2023-02-02T05:40:27;101973.80;;;6.65;55.74
62055;BME280;48653;51.742;-1.256;2023-02-02T05:42:52;101966.89;;;6.82;56.13
62055;BME280;48653;51.742;-1.256;2023-02-02T05:45:18;101967.27;;;6.53;56.96
62055;BME280;48653;51.742;-1.256;2023-02-02T05:47:43;101961.49;;;6.93;56.32
62055;BME280;48653;51.742;-1.256;2023-02-02T05:50:09;101964.85;;;6.91;56.14
62055;BME280;48653;51.742;-1.256;2023-02-02T05:52:34;101960.62;;;7.20;55.93
62055;BME280;48653;51.742;-1.256;2023-02-02T05:54:59;101958.10;;;6.67;56.91
62055;BME280;48653;51.742;-1.256;2023-02-02T05:57:24;101959.49;;;7.13;56.07
62055;BME280;48653;51.742;-1.256;2023-02-02T05:59:49;101957.62;;;7.03;56.21
62055;BME280;48653;51.742;-1.256;2023-02-02T06:02:15;101959.77;;;7.19;56.25
62055;BME280;48653;51.742;-1.256;2023-02-02T06:04:40;101957.52;;;6.89;57.13
62055;BME280;48653;51.742;-1.256;2023-02-02T06:07:05;101955.94;;;6.83;57.24
62055;BME280;48653;51.742;-1.256;2023-02-02T06:09:30;101959.14;;;6.33;57.59
62055;BME280;48653;51.742;-1.256;2023-02-02T06:11:55;101964.72;;;7.04;56.57
62055;BME280;48653;51.742;-1.256;2023-02-02T06:14:20;101967.42;;;7.08;55.87
62055;BME280;48653;51.742;-1.256;2023-02-02T06:16:45;101969.63;;;7.38;56.67
62055;BME280;48653;51.742;-1.256;2023-02-02T06:19:10;101966.68;;;7.40;55.42
62055;BME280;48653;51.742;-1.256;2023-02-02T06:21:35;101971.40;;;7.59;54.29
62055;BME280;48653;51.742;-1.256;2023-02-02T06:24:01;101969.47;;;7.73;54.31
62055;BME280;48653;51.742;-1.256;2023-02-02T06:28:53;101973.71;;;8.28;53.04
62055;BME280;48653;51.742;-1.256;2023-02-02T06:31:18;101976.93;;;6.58;57.53
62055;BME280;48653;51.742;-1.256;2023-02-02T06:33:42;101975.63;;;7.24;55.57
62055;BME280;48653;51.742;-1.256;2023-02-02T06:36:08;101974.68;;;7.23;55.45
62055;BME280;48653;51.742;-1.256;2023-02-02T06:38:33;101981.00;;;7.87;53.73
62055;BME280;48653;51.742;-1.256;2023-02-02T06:40:59;101984.25;;;7.92;54.94
62055;BME280;48653;51.742;-1.256;2023-02-02T06:43:24;101984.42;;;8.03;53.99
62055;BME280;48653;51.742;-1.256;2023-02-02T06:45:49;101986.37;;;8.23;53.72
62055;BME280;48653;51.742;-1.256;2023-02-02T06:48:14;101987.24;;;7.89;53.61
62055;BME280;48653;51.742;-1.256;2023-02-02T06:50:39;101985.97;;;7.84;53.35
62055;BME280;48653;51.742;-1.256;2023-02-02T06:53:04;101993.99;;;8.02;52.57
62055;BME280;48653;51.742;-1.256;2023-02-02T06:55:30;101997.76;;;7.59;53.50
62055;BME280;48653;51.742;-1.256;2023-02-02T06:57:56;102000.83;;;8.00;52.46
62055;BME280;48653;51.742;-1.256;2023-02-02T07:00:20;102006.01;;;7.64;53.05
62055;BME280;48653;51.742;-1.256;2023-02-02T07:02:45;102004.98;;;7.54;53.83
62055;BME280;48653;51.742;-1.256;2023-02-02T07:05:10;102008.66;;;7.63;52.71
62055;BME280;48653;51.742;-1.256;2023-02-02T07:07:36;102007.73;;;7.77;53.41
62055;BME280;48653;51.742;-1.256;2023-02-02T07:10:01;102006.60;;;7.82;52.77
62055;BME280;48653;51.742;-1.256;2023-02-02T07:12:26;102005.09;;;7.90;52.87
62055;BME280;48653;51.742;-1.256;2023-02-02T07:14:51;102004.40;;;7.84;51.56
62055;BME280;48653;51.742;-1.256;2023-02-02T07:17:17;102004.19;;;8.10;51.26
62055;BME280;48653;51.742;-1.256;2023-02-02T07:19:42;102008.64;;;8.06;53.17
62055;BME280;48653;51.742;-1.256;2023-02-02T07:22:08;102008.85;;;8.67;50.56
62055;BME280;48653;51.742;-1.256;2023-02-02T07:24:33;102011.85;;;7.84;52.29
62055;BME280;48653;51.742;-1.256;2023-02-02T07:26:59;102010.11;;;7.98;52.39
62055;BME280;48653;51.742;-1.256;2023-02-02T07:29:23;102011.53;;;7.91;51.98
62055;BME280;48653;51.742;-1.256;2023-02-02T07:31:49;102011.80;;;7.99;53.71
62055;BME280;48653;51.742;-1.256;2023-02-02T07:34:14;102010.41;;;8.09;54.01
62055;BME280;48653;51.742;-1.256;2023-02-02T07:36:40;102007.55;;;7.84;54.02
62055;BME280;48653;51.742;-1.256;2023-02-02T07:39:06;102006.59;;;7.85;54.77
62055;BME280;48653;51.742;-1.256;2023-02-02T07:41:30;102008.83;;;7.82;55.02
62055;BME280;48653;51.742;-1.256;2023-02-02T07:43:55;102010.41;;;8.43;54.51
62055;BME280;48653;51.742;-1.256;2023-02-02T07:46:20;102013.66;;;8.36;55.03
62055;BME280;48653;51.742;-1.256;2023-02-02T07:48:46;102016.03;;;7.67;56.49
62055;BME280;48653;51.742;-1.256;2023-02-02T07:51:13;102017.01;;;7.80;57.33
62055;BME280;48653;51.742;-1.256;2023-02-02T07:53:37;102019.71;;;7.73;57.54
62055;BME280;48653;51.742;-1.256;2023-02-02T07:56:07;102027.32;;;7.74;58.19
62055;BME280;48653;51.742;-1.256;2023-02-02T07:58:27;102028.48;;;7.52;58.90
62055;BME280;48653;51.742;-1.256;2023-02-02T08:00:53;102030.78;;;7.68;58.64
62055;BME280;48653;51.742;-1.256;2023-02-02T08:03:19;102036.07;;;8.24;58.09
62055;BME280;48653;51.742;-1.256;2023-02-02T08:05:44;102039.38;;;8.88;56.16
62055;BME280;48653;51.742;-1.256;2023-02-02T08:08:10;102038.89;;;7.91;57.58
62055;BME280;48653;51.742;-1.256;2023-02-02T08:10:35;102041.36;;;8.38;57.20
62055;BME280;48653;51.742;-1.256;2023-02-02T08:13:00;102044.44;;;8.11;56.24
62055;BME280;48653;51.742;-1.256;2023-02-02T08:15:26;102047.45;;;8.77;55.38
62055;BME280;48653;51.742;-1.256;2023-02-02T08:17:51;102050.51;;;8.87;54.52
62055;BME280;48653;51.742;-1.256;2023-02-02T08:20:17;102052.68;;;9.04;54.27
62055;BME280;48653;51.742;-1.256;2023-02-02T08:22:42;102053.45;;;8.93;54.09
62055;BME280;48653;51.742;-1.256;2023-02-02T08:25:08;102055.11;;;9.42;54.22
62055;BME280;48653;51.742;-1.256;2023-02-02T08:27:33;102057.24;;;9.22;54.89
62055;BME280;48653;51.742;-1.256;2023-02-02T08:29:58;102052.92;;;8.29;57.46
62055;BME280;48653;51.742;-1.256;2023-02-02T08:32:23;102050.94;;;8.78;56.04
62055;BME280;48653;51.742;-1.256;2023-02-02T08:34:48;102049.01;;;9.17;55.69
62055;BME280;48653;51.742;-1.256;2023-02-02T08:37:13;102042.82;;;8.74;57.20
62055;BME280;48653;51.742;-1.256;2023-02-02T08:39:38;102047.86;;;9.14;55.65
62055;BME280;48653;51.742;-1.256;2023-02-02T08:42:03;102044.82;;;8.87;55.88
62055;BME280;48653;51.742;-1.256;2023-02-02T08:44:28;102042.41;;;8.77;56.96
62055;BME280;48653;51.742;-1.256;2023-02-02T08:46:53;102043.11;;;8.79;57.83
62055;BME280;48653;51.742;-1.256;2023-02-02T08:49:19;102043.53;;;8.82;58.52
62055;BME280;48653;51.742;-1.256;2023-02-02T08:51:43;102045.32;;;8.33;58.68
62055;BME280;48653;51.742;-1.256;2023-02-02T08:54:08;102052.36;;;8.06;58.32
62055;BME280;48653;51.742;-1.256;2023-02-02T08:56:34;102055.81;;;9.11;56.13
62055;BME280;48653;51.742;-1.256;2023-02-02T08:58:59;102056.06;;;9.43;55.58
62055;BME280;48653;51.742;-1.256;2023-02-02T09:01:26;102055.50;;;8.45;58.26
62055;BME280;48653;51.742;-1.256;2023-02-02T09:03:52;102056.36;;;9.01;58.05
62055;BME280;48653;51.742;-1.256;2023-02-02T09:06:17;102052.65;;;9.23;56.49
62055;BME280;48653;51.742;-1.256;2023-02-02T09:08:41;102055.08;;;9.35;55.65
62055;BME280;48653;51.742;-1.256;2023-02-02T09:11:07;102056.06;;;8.80;57.95
62055;BME280;48653;51.742;-1.256;2023-02-02T09:13:31;102055.81;;;9.07;56.54
62055;BME280;48653;51.742;-1.256;2023-02-02T09:15:59;102056.56;;;9.27;56.13
62055;BME280;48653;51.742;-1.256;2023-02-02T09:18:21;102064.75;;;9.21;56.53
62055;BME280;48653;51.742;-1.256;2023-02-02T09:20:46;102069.01;;;9.41;55.43
62055;BME280;48653;51.742;-1.256;2023-02-02T09:23:12;102067.51;;;9.87;55.30
62055;BME280;48653;51.742;-1.256;2023-02-02T09:25:38;102074.17;;;9.98;55.75
62055;BME280;48653;51.742;-1.256;2023-02-02T09:28:03;102074.16;;;9.89;55.00
62055;BME280;48653;51.742;-1.256;2023-02-02T09:30:28;102076.78;;;10.00;54.28
62055;BME280;48653;51.742;-1.256;2023-02-02T09:32:53;102078.36;;;9.67;55.09
62055;BME280;48653;51.742;-1.256;2023-02-02T09:35:18;102074.60;;;10.27;54.06
62055;BME280;48653;51.742;-1.256;2023-02-02T09:37:44;102067.61;;;10.11;54.45
62055;BME280;48653;51.742;-1.256;2023-02-02T09:40:13;102070.19;;;9.82;55.66
62055;BME280;48653;51.742;-1.256;2023-02-02T09:42:44;102076.04;;;9.90;56.51
62055;BME280;48653;51.742;-1.256;2023-02-02T09:45:05;102069.21;;;9.88;56.60
62055;BME280;48653;51.742;-1.256;2023-02-02T09:47:30;102068.75;;;8.93;59.26
62055;BME280;48653;51.742;-1.256;2023-02-02T09:49:57;102068.51;;;9.73;57.95
62055;BME280;48653;51.742;-1.256;2023-02-02T09:52:20;102065.79;;;9.18;57.81
62055;BME280;48653;51.742;-1.256;2023-02-02T09:54:44;102073.26;;;9.25;57.99
62055;BME280;48653;51.742;-1.256;2023-02-02T09:57:13;102071.85;;;10.05;56.21
62055;BME280;48653;51.742;-1.256;2023-02-02T09:59:34;102069.02;;;9.93;56.25
62055;BME280;48653;51.742;-1.256;2023-02-02T10:01:59;102070.23;;;10.06;55.92
62055;BME280;48653;51.742;-1.256;2023-02-02T10:04:23;102076.00;;;10.16;55.94
62055;BME280;48653;51.742;-1.256;2023-02-02T10:06:48;102069.79;;;9.73;56.97
62055;BME280;48653;51.742;-1.256;2023-02-02T10:09:24;102071.61;;;9.71;56.90
62055;BME280;48653;51.742;-1.256;2023-02-02T10:11:43;102069.35;;;9.49;57.54
62055;BME280;48653;51.742;-1.256;2023-02-02T10:14:04;102075.18;;;9.71;57.48
62055;BME280;48653;51.742;-1.256;2023-02-02T10:16:28;102083.30;;;10.11;56.26
62055;BME280;48653;51.742;-1.256;2023-02-02T10:18:55;102083.14;;;10.81;54.95
62055;BME280;48653;51.742;-1.256;2023-02-02T10:21:25;102090.78;;;9.91;56.35
62055;BME280;48653;51.742;-1.256;2023-02-02T10:23:43;102093.24;;;10.19;56.05
62055;BME280;48653;51.742;-1.256;2023-02-02T10:26:15;102088.14;;;11.23;53.97
62055;BME280;48653;51.742;-1.256;2023-02-02T10:28:41;102086.24;;;11.06;54.07
62055;BME280;48653;51.742;-1.256;2023-02-02T10:31:00;102084.50;;;11.02;53.38
62055;BME280;48653;51.742;-1.256;2023-02-02T10:33:32;102084.10;;;11.58;52.55
62055;BME280;48653;51.742;-1.256;2023-02-02T10:35:54;102084.70;;;11.03;53.73
62055;BME280;48653;51.742;-1.256;2023-02-02T10:38:19;102080.79;;;10.89;53.43
62055;BME280;48653;51.742;-1.256;2023-02-02T10:40:46;102079.85;;;10.94;53.65
62055;BME280;48653;51.742;-1.256;2023-02-02T10:43:19;102082.57;;;10.87;54.78
62055;BME280;48653;51.742;-1.256;2023-02-02T10:45:29;102075.47;;;10.86;54.36
62055;BME280;48653;51.742;-1.256;2023-02-02T10:47:54;102085.27;;;10.38;55.78
62055;BME280;48653;51.742;-1.256;2023-02-02T10:50:21;102076.00;;;10.51;55.95
62055;BME280;48653;51.742;-1.256;2023-02-02T10:52:47;102076.14;;;10.67;55.27
62055;BME280;48653;51.742;-1.256;2023-02-02T10:55:18;102070.13;;;11.02;53.79
62055;BME280;48653;51.742;-1.256;2023-02-02T10:57:48;102073.02;;;11.36;53.70
62055;BME280;48653;51.742;-1.256;2023-02-02T11:00:04;102075.82;;;10.69;53.84
62055;BME280;48653;51.742;-1.256;2023-02-02T11:02:25;102070.55;;;11.06;52.99
62055;BME280;48653;51.742;-1.256;2023-02-02T11:04:50;102070.23;;;11.25;53.45
62055;BME280;48653;51.742;-1.256;2023-02-02T11:07:15;102067.63;;;11.32;53.27
62055;BME280;48653;51.742;-1.256;2023-02-02T11:09:41;102068.41;;;11.24;53.08
62055;BME280;48653;51.742;-1.256;2023-02-02T11:12:12;102060.77;;;11.49;52.15
62055;BME280;48653;51.742;-1.256;2023-02-02T11:14:36;102067.16;;;10.16;55.16
62055;BME280;48653;51.742;-1.256;2023-02-02T11:17:01;102057.75;;;10.04;55.74
62055;BME280;48653;51.742;-1.256;2023-02-02T11:19:22;102052.47;;;9.96;55.73
62055;BME280;48653;51.742;-1.256;2023-02-02T11:21:47;102045.24;;;10.16;55.79
62055;BME280;48653;51.742;-1.256;2023-02-02T11:24:20;102047.94;;;10.22;55.28
62055;BME280;48653;51.742;-1.256;2023-02-02T11:26:43;102050.33;;;10.44;55.08
62055;BME280;48653;51.742;-1.256;2023-02-02T11:29:01;102048.56;;;10.35;54.91
62055;BME280;48653;51.742;-1.256;2023-02-02T11:31:32;102043.11;;;10.40;55.08
62055;BME280;48653;51.742;-1.256;2023-02-02T11:33:52;102048.12;;;9.83;56.21
62055;BME280;48653;51.742;-1.256;2023-02-02T11:36:19;102046.22;;;10.13;56.05
62055;BME280;48653;51.742;-1.256;2023-02-02T11:38:42;102045.31;;;10.16;55.76
62055;BME280;48653;51.742;-1.256;2023-02-02T11:41:09;102049.24;;;10.05;56.11
62055;BME280;48653;51.742;-1.256;2023-02-02T11:43:33;102046.19;;;9.86;56.12
62055;BME280;48653;51.742;-1.256;2023-02-02T11:46:00;102037.87;;;10.52;55.10
62055;BME280;48653;51.742;-1.256;2023-02-02T11:48:29;102040.49;;;9.83;56.34
62055;BME280;48653;51.742;-1.256;2023-02-02T11:50:50;102041.92;;;10.31;55.98
62055;BME280;48653;51.742;-1.256;2023-02-02T11:53:20;102035.53;;;11.07;54.40
62055;BME280;48653;51.742;-1.256;2023-02-02T11:55:42;102040.50;;;10.39;55.74
62055;BME280;48653;51.742;-1.256;2023-02-02T12:00:29;102039.05;;;10.36;55.03
62055;BME280;48653;51.742;-1.256;2023-02-02T12:02:53;102031.64;;;10.46;55.06
62055;BME280;48653;51.742;-1.256;2023-02-02T12:05:33;102042.25;;;10.37;56.51
62055;BME280;48653;51.742;-1.256;2023-02-02T12:07:43;102035.20;;;10.22;56.38
62055;BME280;48653;51.742;-1.256;2023-02-02T12:10:15;102032.78;;;10.23;57.07
62055;BME280;48653;51.742;-1.256;2023-02-02T12:12:41;102035.69;;;10.36;56.04
62055;BME280;48653;51.742;-1.256;2023-02-02T12:15:06;102023.07;;;10.81;55.08
62055;BME280;48653;51.742;-1.256;2023-02-02T12:17:33;102032.44;;;9.22;59.14
62055;BME280;48653;51.742;-1.256;2023-02-02T12:20:01;102032.54;;;9.20;59.68
62055;BME280;48653;51.742;-1.256;2023-02-02T12:22:25;102030.12;;;9.76;58.45
62055;BME280;48653;51.742;-1.256;2023-02-02T12:24:45;102030.00;;;9.93;58.21
62055;BME280;48653;51.742;-1.256;2023-02-02T12:27:16;102023.58;;;10.08;57.67
62055;BME280;48653;51.742;-1.256;2023-02-02T12:29:39;102021.87;;;9.85;57.32
62055;BME280;48653;51.742;-1.256;2023-02-02T12:34:24;102031.20;;;9.69;58.06
62055;BME280;48653;51.742;-1.256;2023-02-02T12:36:49;102016.11;;;10.17;58.07
62055;BME280;48653;51.742;-1.256;2023-02-02T12:39:19;102019.13;;;10.31;56.92
62055;BME280;48653;51.742;-1.256;2023-02-02T12:41:52;102017.18;;;9.51;58.56
62055;BME280;48653;51.742;-1.256;2023-02-02T12:44:04;102022.50;;;10.04;58.65
62055;BME280;48653;51.742;-1.256;2023-02-02T12:46:36;102014.89;;;9.51;59.87
62055;BME280;48653;51.742;-1.256;2023-02-02T12:49:01;102013.34;;;9.92;59.55
62055;BME280;48653;51.742;-1.256;2023-02-02T12:51:27;102013.02;;;9.86;59.43